Aviation Digital Data Service (ADDS)

Output produced by METARs form (0146 UTC 27 June 2017)
found at http://www.aviationweather.gov/adds/metars/
 
KIAD 262335Z 2700/2806 23006KT P6SM SCT080 
     FM270500 30004KT P6SM SCT080 
     FM271100 VRB03KT P6SM BKN140 
     FM271500 28010G17KT P6SM SCT070 
     FM280400 31004KT P6SM FEW070